MMPQ 090045Z 00000KT 4SM FEW040 27/23 A2981 RMK 8/100 HZY= 090045

MMPQ 082352Z 09005KT 6SM FEW040 28/24 A2980 RMK 8/100 HZY= 082353

MMPQ 082246Z 00000KT 7SM FEW040 30/24 A2979 RMK 8/100 HZY= 082247

MMPQ 082148Z 09010KT 7SM FEW030 31/24 A2978 RMK 8/100 HZY= 082149

MMPQ 082049Z 00000KT 7SM FEW030 31/24 A2978 RMK 8/100 HZY= 082050

MMPQ 081947Z 09015KT 6SM FEW030 31/24 A2979 RMK 8/100 HZY= 081948

MMPQ 081851Z 00000KT 6SM FEW030 31/24 A2981 RMK 8/100 HZY= 081852

MMPQ 081742Z 09011KT 6SM FEW030 30/22 A2985 RMK 8/100 HZY= 081743

MMPQ 081644Z 09010KT 6SM SKC 29/23 A2988 RMK HZY= 081645

MMPQ 081546Z 09009KT 6SM FEW030 27/23 A2989 RMK 8/400 HZY= 081547

MMPQ 081446Z 00000KT 6SM SKC 26/22 A2989 RMK HZY= 081446

MMPQ 081345Z 09009KT 6SM SKC 24/22 A2987 RMK HZY= 081345

MMPQ 081305Z RTD 09012KT 6SM SKC 23/22 A2986 RMK HZY= 081306

MMPQ 080049Z 00000KT 5SM SKC 27/23 A2983 RMK HZY MSGTX MMMX= 080049

MMPQ 072250Z 00000KT 7SM FEW030 31/23 A2979 RMK 8/100 HZY MSGTX MMMX= 072250

MMPQ 072158Z 00000KT 7SM FEW030 31/23 A2978 RMK 8/100 HZY MSGTX MMMX= 072158

MMPQ 072050Z 09010KT 7SM FEW030 31/24 A2978 RMK 8/100 HZY MSGTX MMMX= 072050

MMPQ 071950Z 09010KT 7SM FEW030 31/24 A2980 RMK 8/100 HZY = 071950

MMPQ 071842Z 09008KT 6SM FEW030 30/24 A2983 RMK 8/100 HZY MSGTX MMMX= 071842

MMPQ 071747Z 00000KT 6SM SKC 29/23 A2987 RMK HZY MSGTX MMMX= 071747

MMPQ 071644Z 00000KT 6SM SKC 27/23 A2990 RMK HZY MSGTX MMMX= 071644

MMPQ 071546Z 00000KT 6SM FEW030 26/23 A2991 RMK 8/100 HZY MSGTX MMMX= 071546

MMPQ 071501Z RTD 00000KT 6SM SKC 25/22 A2991 RMK HZY MSGTX MMMX= 071501

MMPQ 071347Z 00000KT 6SM SKC 23/22 A2988 RMK HZY MSGTX MMMX= 071347

MMPQ 071308Z RTD 00000KT 6SM SKC 22/21 A2987 RMK HZY RTS MSGTX MMMX= 071308

MMPQ 070047Z 09005KT 4SM FEW040 28/23 A2982 RMK 8/100 HZY= 070048

MMPQ 062346Z 09008KT 6SM FEW040 28/23 A2980 RMK 8/100 HZY= 062347

MMPQ 062245Z 09005KT 7SM FEW040 30/24 A2978 RMK 8/100 HZY= 062247

MMPQ 062142Z 09005KT 7SM SKC 31/24 A2978= 062143

MMPQ 062045Z 09010KT 7SM FEW030 31/24 A2978 RMK 8/100= 062046

MMPQ 061945Z 00000KT 7SM SKC 30/23 A2981= 061946

MMPQ 061846Z 00000KT 7SM SKC 30/23 A2983= 061846

MMPQ 061748Z 00000KT 7SM SKC 28/23 A2987= 061749

MMPQ 061645Z 00000KT 7SM SKC 27/22 A2990= 061646

MMPQ 061547Z 00000KT 7SM SKC 25/22 A2991= 061547

MMPQ 061449Z 00000KT 7SM SKC 24/21 A2990= 061450

MMPQ 061354Z 00000KT 7SM SKC 22/21 A2988= 061354

MMPQ 061313Z RTD 00000KT 6SM SKC 20/19 A2987 RMK HZY= 061313

MMPQ 050043Z 00000KT 5SM SCT040 26/22 A2990 RMK 8/400 HZY MSGTX MMMX= 050043

MMPQ 042344Z 09007KT 6SM SCT040 27/22 A2989 RMK SLP/// 5//// 9// 8/400 HZY MSGTX MMMX= 042344

MMPQ 042244Z 09008KT 6SM SCT040 28/23 A2987 RMK 8/400 HZY MSGTX MMMX= 042244

MMPQ 042142Z 09010KT 6SM SCT040 29/23 A2986 RMK 8/100 HZY MSGTX MMMX= 042142

MMPQ 042048Z 09009KT 6SM SCT040 29/23 A2986 RMK SLP/// 5//// 9// 8/100 HZY MSGTX MMMX= 042048

MMPQ 041943Z 09008KT 6SM FEW040 29/23 A2987 RMK 8/100 HZY MSGTX MMMX= 041943

MMPQ 041747Z 09014KT 6SM FEW030 27/23 A2992 RMK 8/100 HZY MSGTX MMMX= 041747

MMPQ 041648Z 09008KT 5SM FEW030 26/23 A2995 RMK 8/100 HZY MSGTX MMMX= 041648

MMPQ 041547Z 09009KT 5SM FEW030 25/22 A2996 RMK 8/100 HZY MSGTX MMMX= 041547

MMPQ 041443Z 00000KT 5SM SKC 24/22 A2996 RMK HZY MSGTX MMMX= 041443

MMPQ 041310Z 09006KT 4SM BKN040 21/21 A2994 RMK 8/600 HZY MSGTX MMMX= 041310